Allen, Nebraska
Current Conditions -  °F | °C
As of 10:35 AM on Tuesday 27 Jan 2015 (Local Time) from KLCG Reporting Station
Clear Clear  
Wind Chill: 33°   Ceiling: Unl
Heat Index: 41°   Visibility: 10mi
Dew Point: 35°   Wind: 15mph
Humidity: 79%   Direction: 160°SSE
Pressure: 30.11"   Gusts: NA
Location:  42.42°N, 96.85°W
Report Text: KLCG 271635Z AUTO 16013KT 10SM CLR 05/02 A3011 RMK AO2 T00500016
Loading
Personal Weather Stations






























Interactive Weather Map New forecast layout! Learn more

10-Day Weather Forecast

Advertisements
Track Severe Weather on mobile